Empire, MI

5:08 AM EST on November 29, 2014 (GMT -0500)
APRSWXNET Glen Arbor MI US | Change Station
CLOSE
Current Station
Personal Weather Station
Location: Glen Arbor, MI
Elevation: 590 ft
Nearby Weather Stations

Elev 590 ft 44.89 °N, 86.01 °W | Updated 39 minutes ago

Overcast
Overcast
29 °F
Feels Like 29 °F
N
0
Wind Variable Wind from ESE
Gusts 0.0 mph

Today
High -- | Low -- °F
--% Chance of Precip.
Yesterday
High -- | Low -- °F
Precip. -- in
7:59 AM 5:05 PM
Waxing Crescent, 50% visible
Pressure 29.82 in
Visibility 10.0 miles
Clouds Overcast 1700 ft
Windchill 29 °F
Dew Point 24 °F
Humidity 81%
Rainfall 0.00 in
Snow Depth Not available.
UV 0 out of 12
Pollen .10 out of 12
Air Quality Not available.
Flu Activity Not available.
METAR KFKS 290952Z AUTO 15011G15KT 10SM OVC017 M02/M03 A2982 RMK AO2 T10201035

More Conditions Fewer Conditions

Pressure 29.82 in
Visibility 10.0 miles
Clouds Overcast 1700 ft
Windchill 29 °F
Dew Point 24 °F
Humidity 81%
Rainfall 0.00 in
Snow Depth Not available.
UV 0 out of 12
Pollen .10 out of 12
Air Quality Not available.
Flu Activity Not available.
METAR KFKS 290952Z AUTO 15011G15KT 10SM OVC017 M02/M03 A2982 RMK AO2 T10201035

More Conditions Fewer Conditions

Nowcast | as of 5:00 am EST on November 29, 2014

At 6 am...cloudy. Chance of light freezing rain and light sleet. Temperature 29. South winds 10 mph. At 8 am...cloudy. Patchy freezing drizzle. Temperature 30. South winds 10 mph. At 10 am...cloudy. Patchy drizzle. Temperature 31. South winds 10 mph. At 12 PM...cloudy. Patchy drizzle. Temperature 35. South winds 11 mph.

×

10-Day Weather Forecast

Almanac

Astronomy

Nov. 29, 2014 Rise Set
Actual Time
Civil Twilight
Nautical Twilight
Astronomical Twilight
Moon
Length of Visible Light
Length of Day
Tomorrow will be .
, % of the Moon is Illuminated

Today's Extremes

State Highs State Lows

Community

WunderPhotos

Upload Photos

1,774,442 photos uploaded!

WunderBlogs® & News

Nearby

Air Quality

  Air Quality AQ Index Pollutant
Not available.

Snow Depth

Station Depth Elevation

Earthquake Activity

City Distance Mag. Time & Date
Minimum magnitude displayed is 2.5.

Coastal Water Temperatures

Place Temperature

Nearby Weather Stations